Sharon, Kansas
Current Conditions -  °F | °C
As of 3:55 PM on Thursday 27 Nov 2014 (Local Time) from KPTT Reporting Station
Clear Clear  
Wind Chill: 38°   Ceiling: Unl
Heat Index: 45°   Visibility: 10mi
Dew Point: 19°   Wind: 15mph
Humidity: 37%   Direction: 170°S
Pressure: 30.24"   Gusts: NA
Location:  37.25°N, 98.42°W
Report Text: KPTT 272155Z AUTO 17013KT 10SM CLR 07/M07 A3024 RMK AO2
Loading
Personal Weather Stations






























Interactive Weather Map New forecast layout! Learn more

10-Day Weather Forecast

Advertisements
Track Severe Weather on mobile